Time;durP1;ratioP1;P1;durP2;ratioP2;P2;SDS_P1;SDS_P2;PMS_P1;PMS_P2;Temp;Humidity;BMP_temperature;BMP_pressure;BME280_temperature;BME280_humidity;BME280_pressure;Samples;Min_cycle;Max_cycle;Signal;HPM_P1;HPM_P2
2023/06/14 00:02:04;;;;;;;2.00;1.90;;;;;;;19.18;43.41;101331.81;5053611;28;20108;-86
2023/06/14 00:04:30;;;;;;;3.17;2.33;;;;;;;19.11;44.13;101327.75;5053773;28;20117;-87
2023/06/14 00:06:56;;;;;;;2.85;2.53;;;;;;;19.06;44.83;101334.97;5054305;28;20056;-84
2023/06/14 00:09:22;;;;;;;3.55;2.60;;;;;;;18.95;43.78;101325.78;5053067;28;20100;-85
2023/06/14 00:11:47;;;;;;;2.60;2.40;;;;;;;18.97;43.83;101326.56;5074282;28;20037;-85
2023/06/14 00:14:13;;;;;;;2.80;2.40;;;;;;;18.94;43.98;101334.59;5058619;28;20025;-85
2023/06/14 00:16:42;;;;;;;2.47;2.20;;;;;;;18.92;43.10;101335.56;5053538;28;20053;-85
2023/06/14 00:19:10;;;;;;;2.60;2.25;;;;;;;18.90;42.90;101333.00;5053813;28;20013;-84
2023/06/14 00:21:37;;;;;;;2.20;2.00;;;;;;;18.89;43.36;101333.91;5054025;28;20017;-86
2023/06/14 00:24:04;;;;;;;2.30;2.10;;;;;;;18.88;43.48;101337.47;5053241;28;20021;-85
2023/06/14 00:26:29;;;;;;;2.40;2.20;;;;;;;18.82;43.96;101337.72;5053867;28;20381;-87
2023/06/14 00:28:54;;;;;;;2.27;2.07;;;;;;;18.73;43.14;101332.84;5052922;28;20017;-86
2023/06/14 00:31:20;;;;;;;2.20;2.00;;;;;;;18.76;43.27;101338.81;5053376;28;20017;-86
2023/06/14 00:33:46;;;;;;;1.90;1.80;;;;;;;18.73;43.39;101351.25;5053583;28;20412;-86
2023/06/14 00:36:26;;;;;;;1.77;1.67;;;;;;;18.68;43.07;101344.41;5052651;28;20021;-87
2023/06/14 00:38:52;;;;;;;2.55;2.30;;;;;;;18.59;43.69;101331.63;5053945;28;20021;-86
2023/06/14 00:41:17;;;;;;;2.97;2.40;;;;;;;18.55;44.12;101334.44;5053683;28;20025;-85
2023/06/14 00:43:46;;;;;;;3.97;2.70;;;;;;;18.51;43.29;101334.59;5052600;28;20479;-87
2023/06/14 00:46:11;;;;;;;3.20;2.60;;;;;;;18.51;42.77;101346.88;5053162;28;20512;-85
2023/06/14 00:48:37;;;;;;;4.63;3.13;;;;;;;18.47;43.01;101346.16;5053366;28;20049;-86
2023/06/14 00:51:03;;;;;;;4.93;3.00;;;;;;;18.44;43.01;101342.78;5052722;28;20120;-86
2023/06/14 00:53:39;;;;;;;3.88;2.92;;;;;;;18.36;42.24;101324.69;5052932;28;20353;-86
2023/06/14 00:56:05;;;;;;;2.95;2.42;;;;;;;18.35;42.22;101331.72;5053257;28;20044;-85
2023/06/14 00:58:39;;;;;;;4.95;3.08;;;;;;;18.24;41.98;101331.28;5052893;28;20037;-86
2023/06/14 01:01:04;;;;;;;4.63;2.90;;;;;;;18.36;42.42;101340.47;5053461;28;20021;-85
2023/06/14 01:03:31;;;;;;;3.70;2.70;;;;;;;18.34;42.53;101335.28;5052551;28;20032;-86
2023/06/14 01:06:14;;;;;;;3.15;2.60;;;;;;;18.32;42.39;101345.00;5030931;28;20029;-84
2023/06/14 01:08:42;;;;;;;2.88;2.50;;;;;;;18.28;42.44;101348.66;5053399;28;20032;-85
2023/06/14 01:11:22;;;;;;;3.63;2.88;;;;;;;18.12;42.47;101329.19;5052126;28;20112;-84
2023/06/14 01:13:55;;;;;;;2.83;2.40;;;;;;;18.21;43.35;101347.19;5053120;28;20021;-85
2023/06/14 01:16:20;;;;;;;4.05;3.13;;;;;;;18.10;42.59;101341.50;5052979;28;20025;-85
2023/06/14 01:18:48;;;;;;;6.13;3.40;;;;;;;18.14;42.40;101343.94;5052483;28;20044;-85
2023/06/14 01:21:23;;;;;;;4.03;2.78;;;;;;;18.12;42.10;101345.78;5052903;28;20021;-85
2023/06/14 01:23:52;;;;;;;2.60;2.40;;;;;;;18.11;42.25;101345.84;5052412;28;20116;-85
2023/06/14 01:26:20;;;;;;;3.25;2.42;;;;;;;18.12;42.41;101344.94;5051939;28;20049;-85
2023/06/14 01:28:48;;;;;;;2.88;2.55;;;;;;;18.10;42.53;101346.75;5052630;28;20029;-85
2023/06/14 01:31:17;;;;;;;3.10;2.50;;;;;;;18.03;42.67;101341.72;5052338;28;20079;-86
2023/06/14 01:33:44;;;;;;;5.78;3.63;;;;;;;17.94;42.21;101349.09;5052356;28;20033;-87
2023/06/14 01:36:09;;;;;;;6.93;4.00;;;;;;;17.96;42.11;101353.34;5052471;28;20025;-86
2023/06/14 01:38:37;;;;;;;8.95;4.20;;;;;;;17.87;42.05;101345.84;5052762;28;20031;-86
2023/06/14 01:41:03;;;;;;;8.05;4.30;;;;;;;17.82;42.15;101345.16;5051409;28;20430;-85
2023/06/14 01:43:31;;;;;;;6.60;3.72;;;;;;;17.86;42.39;101350.22;5052489;28;20028;-87
2023/06/14 01:45:57;;;;;;;8.07;4.40;;;;;;;17.80;42.32;101352.22;5062964;28;20496;-87
2023/06/14 01:48:23;;;;;;;7.55;4.20;;;;;;;17.67;42.51;101333.47;5071470;28;20036;-87
2023/06/14 01:50:49;;;;;;;6.28;3.95;;;;;;;17.75;42.59;101344.50;5072828;28;20482;-86
2023/06/14 01:53:15;;;;;;;9.00;4.20;;;;;;;17.67;42.46;101343.94;5071950;28;20021;-86
2023/06/14 01:55:43;;;;;;;5.70;3.90;;;;;;;17.66;42.70;101334.38;5071994;28;20056;-85
2023/06/14 01:58:08;;;;;;;8.55;4.53;;;;;;;17.62;42.75;101345.91;5072495;28;20020;-86
2023/06/14 02:00:34;;;;;;;6.83;4.00;;;;;;;17.63;42.72;101348.47;5072095;28;20031;-86
2023/06/14 02:03:00;;;;;;;6.15;3.78;;;;;;;17.63;43.54;101345.84;5054538;28;20025;-85
2023/06/14 02:05:26;;;;;;;5.97;3.53;;;;;;;17.55;43.07;101340.88;5053286;28;20513;-87
2023/06/14 02:07:53;;;;;;;8.27;3.80;;;;;;;17.51;43.24;101341.88;5051607;28;20029;-87
2023/06/14 02:10:18;;;;;;;7.65;4.40;;;;;;;17.46;43.60;101343.84;5052039;28;20020;-86
2023/06/14 02:12:44;;;;;;;7.23;3.97;;;;;;;17.39;43.40;101337.94;5052558;28;20033;-86
2023/06/14 02:15:19;;;;;;;7.43;4.20;;;;;;;17.39;43.64;101344.97;5051262;28;20028;-87
2023/06/14 02:17:46;;;;;;;7.93;4.50;;;;;;;17.20;44.17;101327.25;5052335;28;20160;-86
2023/06/14 02:20:18;;;;;;;6.50;4.03;;;;;;;17.21;44.03;101334.22;5052149;28;20068;-87
2023/06/14 02:22:45;;;;;;;8.80;4.10;;;;;;;17.14;44.29;101327.47;5051315;28;20028;-88
2023/06/14 02:25:22;;;;;;;8.65;4.28;;;;;;;17.05;44.44;101323.41;5052060;28;20029;-86
2023/06/14 02:27:48;;;;;;;7.47;4.15;;;;;;;17.16;44.44;101345.78;5052184;28;20025;-87
2023/06/14 02:30:31;;;;;;;10.53;4.53;;;;;;;17.13;44.77;101346.75;5050935;28;20036;-86
2023/06/14 02:32:56;;;;;;;9.07;4.68;;;;;;;17.10;44.51;101346.84;5052375;28;20028;-86
2023/06/14 02:35:37;;;;;;;6.67;3.90;;;;;;;17.05;44.92;101348.78;5051412;28;20028;-86
2023/06/14 02:38:02;;;;;;;7.43;4.00;;;;;;;16.89;44.83;101336.16;5052347;28;20108;-86
2023/06/14 02:40:28;;;;;;;7.73;3.90;;;;;;;17.01;45.17;101361.13;5052049;28;20048;-87
2023/06/14 02:43:05;;;;;;;6.40;3.77;;;;;;;16.93;45.28;101357.88;5051405;28;20096;-87
2023/06/14 02:45:30;;;;;;;9.00;3.97;;;;;;;16.82;45.40;101342.53;5050073;28;20048;-87
2023/06/14 02:47:56;;;;;;;8.40;4.20;;;;;;;16.76;45.52;101342.72;5052419;28;20485;-87
2023/06/14 02:50:21;;;;;;;10.00;4.43;;;;;;;16.80;45.28;101357.44;5050811;28;20025;-87
2023/06/14 02:52:47;;;;;;;6.83;3.97;;;;;;;16.77;45.61;101353.16;5058034;28;20524;-86
2023/06/14 02:55:12;;;;;;;6.37;4.00;;;;;;;16.81;45.97;101364.41;5055495;28;20060;-86
2023/06/14 02:57:38;;;;;;;7.30;4.00;;;;;;;16.77;45.27;101358.41;5055820;28;20663;-85
2023/06/14 03:00:03;;;;;;;6.40;3.70;;;;;;;16.75;45.06;101357.59;5055501;28;20051;-85
2023/06/14 03:02:29;;;;;;;8.37;4.50;;;;;;;16.72;46.12;101362.94;5054885;28;20025;-85
2023/06/14 03:04:55;;;;;;;5.37;3.50;;;;;;;16.72;46.26;101360.31;5054973;28;20286;-87
2023/06/14 03:07:40;;;;;;;6.03;3.70;;;;;;;16.72;46.03;101370.78;5055383;28;20135;-86
2023/06/14 03:10:09;;;;;;;7.37;3.77;;;;;;;16.69;46.29;101365.66;5062788;28;20074;-85
2023/06/14 03:12:47;;;;;;;7.65;3.90;;;;;;;16.58;46.44;101362.50;5065652;28;20290;-86
2023/06/14 03:15:17;;;;;;;7.10;4.00;;;;;;;16.56;45.79;101364.31;5075355;28;20482;-86
2023/06/14 03:17:45;;;;;;;4.88;3.35;;;;;;;16.64;46.19;101381.53;5074907;28;20029;-86
2023/06/14 03:20:10;;;;;;;5.72;3.80;;;;;;;16.62;45.82;101382.50;5074782;28;20025;-85
2023/06/14 03:22:37;;;;;;;6.87;3.67;;;;;;;16.59;46.99;101382.56;5075166;28;20050;-87
2023/06/14 03:25:04;;;;;;;6.05;3.90;;;;;;;16.54;47.01;101380.09;5074041;28;20115;-87
2023/06/14 03:27:35;;;;;;;8.05;4.10;;;;;;;16.52;46.83;101380.16;5074121;28;20056;-86
2023/06/14 03:30:01;;;;;;;10.15;4.40;;;;;;;16.48;46.79;101375.91;5075131;28;20115;-85
2023/06/14 03:32:26;;;;;;;8.37;4.10;;;;;;;16.38;47.25;101369.25;5074023;28;20105;-85
2023/06/14 03:35:01;;;;;;;5.10;3.50;;;;;;;16.42;46.85;101381.38;5074842;28;20377;-85
2023/06/14 03:37:26;;;;;;;8.65;3.90;;;;;;;16.35;47.75;101379.81;5074396;28;20043;-86
2023/06/14 03:39:51;;;;;;;8.80;4.10;;;;;;;16.34;47.69;101383.34;5073952;28;20028;-85
2023/06/14 03:42:16;;;;;;;8.50;4.10;;;;;;;16.28;47.47;101380.91;5074990;28;20107;-86
2023/06/14 03:44:51;;;;;;;8.73;4.57;;;;;;;16.23;47.79;101377.56;5074604;28;20040;-87
2023/06/14 03:47:16;;;;;;;10.45;4.22;;;;;;;16.29;47.54;101387.88;5073553;28;20062;-86
2023/06/14 03:49:42;;;;;;;6.17;3.70;;;;;;;16.30;48.07;101389.59;5074810;28;20024;-85
2023/06/14 03:52:23;;;;;;;5.43;3.63;;;;;;;16.29;48.15;101399.19;5074371;28;20066;-85
2023/06/14 03:54:49;;;;;;;6.50;3.40;;;;;;;16.29;48.19;101400.97;5073678;28;20378;-86
2023/06/14 03:57:14;;;;;;;5.33;3.50;;;;;;;16.22;48.21;101395.06;5074589;28;20095;-86
2023/06/14 03:59:41;;;;;;;6.88;4.20;;;;;;;16.11;48.96;101392.75;5075013;28;20457;-86
2023/06/14 04:02:16;;;;;;;7.45;4.10;;;;;;;16.01;48.69;101373.84;5073097;28;20028;-85
2023/06/14 04:04:45;;;;;;;5.85;3.70;;;;;;;16.18;48.91;101398.66;5073433;28;20013;-85
2023/06/14 04:07:29;;;;;;;7.18;3.63;;;;;;;16.12;48.22;101380.53;5073526;28;20374;-85
2023/06/14 04:09:55;;;;;;;8.98;4.13;;;;;;;16.11;49.15;101402.38;5074436;28;20020;-86
2023/06/14 04:12:38;;;;;;;7.57;4.43;;;;;;;16.12;49.20;101407.56;5073713;28;20031;-86
2023/06/14 04:15:05;;;;;;;8.02;3.80;;;;;;;16.14;49.14;101411.00;5073422;28;20311;-84
2023/06/14 04:17:32;;;;;;;6.82;3.63;;;;;;;16.13;49.48;101408.44;5073997;28;20024;-86
2023/06/14 04:19:59;;;;;;;;;;;;;;;16.15;49.82;101410.09;5074557;28;20029;-86
2023/06/14 04:22:27;;;;;;;7.63;3.92;;;;;;;16.13;49.63;101408.44;5052595;28;19924;-85
2023/06/14 04:24:55;;;;;;;10.48;4.28;;;;;;;16.10;49.74;101413.75;5054253;28;20092;-86
2023/06/14 04:27:21;;;;;;;5.85;3.60;;;;;;;16.10;49.32;101409.34;5053562;28;20053;-86
2023/06/14 04:29:49;;;;;;;7.40;3.72;;;;;;;16.14;49.89;101413.63;5053194;28;20389;-84
2023/06/14 04:32:15;;;;;;;9.43;4.40;;;;;;;16.15;49.82;101419.72;5053648;28;20021;-85
2023/06/14 04:34:41;;;;;;;8.03;4.17;;;;;;;16.20;50.26;101420.44;5060967;28;20393;-86
2023/06/14 04:37:09;;;;;;;6.45;4.05;;;;;;;16.20;49.77;101416.06;5072777;28;20507;-86
2023/06/14 04:39:35;;;;;;;9.02;4.40;;;;;;;16.16;50.35;101409.19;5073599;28;20123;-85
2023/06/14 04:42:00;;;;;;;12.57;4.20;;;;;;;16.25;49.46;101418.56;5073107;28;20062;-85
2023/06/14 04:44:29;;;;;;;7.87;3.97;;;;;;;16.18;50.18;101407.41;5073441;28;20036;-87
2023/06/14 04:46:58;;;;;;;13.05;4.47;;;;;;;16.25;50.15;101423.78;5073524;28;20017;-86
2023/06/14 04:49:24;;;;;;;9.57;4.50;;;;;;;16.30;50.22;101427.09;5072593;28;20035;-86
2023/06/14 04:51:57;;;;;;;9.20;4.17;;;;;;;16.29;50.12;101416.69;5073195;28;20026;-85
2023/06/14 04:54:23;;;;;;;5.88;3.97;;;;;;;16.38;49.99;101432.13;5073243;28;20282;-86
2023/06/14 04:56:48;;;;;;;9.55;4.80;;;;;;;16.33;49.82;101413.94;5072604;28;20469;-86
2023/06/14 04:59:14;;;;;;;10.50;4.83;;;;;;;16.39;50.40;101425.97;5073203;28;20087;-85
2023/06/14 05:01:40;;;;;;;9.45;4.57;;;;;;;16.43;50.65;101424.13;5074181;28;20021;-86
2023/06/14 05:04:05;;;;;;;9.75;4.82;;;;;;;16.50;50.41;101429.13;5072296;28;20040;-84
2023/06/14 05:06:31;;;;;;;10.63;4.47;;;;;;;16.58;50.72;101433.25;5073042;28;20033;-86
2023/06/14 05:08:56;;;;;;;11.50;4.70;;;;;;;16.57;50.23;101423.69;5064263;28;20539;-87
2023/06/14 05:11:23;;;;;;;9.23;4.73;;;;;;;16.63;49.59;101440.06;5052116;28;20037;-86
2023/06/14 05:13:50;;;;;;;10.93;4.40;;;;;;;16.58;50.34;101423.66;5053413;28;20021;-86
2023/06/14 05:16:16;;;;;;;11.27;5.00;;;;;;;16.65;50.39;101438.28;5051872;28;20037;-87
2023/06/14 05:18:42;;;;;;;10.07;4.93;;;;;;;16.69;50.59;101439.03;5052382;28;20025;-86
2023/06/14 05:21:08;;;;;;;10.70;4.53;;;;;;;16.72;50.59;101441.56;5069620;28;20074;-86
2023/06/14 05:23:34;;;;;;;8.63;4.47;;;;;;;16.76;50.46;101443.19;5072881;28;20107;-85
2023/06/14 05:26:00;;;;;;;11.50;5.07;;;;;;;16.82;50.15;101447.38;5071747;28;20104;-85
2023/06/14 05:28:25;;;;;;;10.23;4.65;;;;;;;16.86;50.40;101450.75;5073079;28;20059;-87
2023/06/14 05:30:51;;;;;;;10.13;4.73;;;;;;;16.92;50.08;101440.06;5072886;28;20055;-85
2023/06/14 05:33:16;;;;;;;10.15;4.95;;;;;;;16.93;50.19;101444.41;5071743;28;20062;-86
2023/06/14 05:35:42;;;;;;;6.17;4.07;;;;;;;16.97;50.34;101439.03;5072803;28;20070;-85
2023/06/14 05:38:07;;;;;;;8.10;4.50;;;;;;;17.09;50.22;101453.53;5072739;28;20067;-86
2023/06/14 05:40:42;;;;;;;10.10;4.83;;;;;;;17.04;50.36;101437.06;5071430;28;20024;-87
2023/06/14 05:43:23;;;;;;;10.05;4.55;;;;;;;17.13;49.73;101449.03;5052068;28;20079;-87
2023/06/14 05:46:00;;;;;;;8.85;4.03;;;;;;;17.13;50.01;101438.53;5051976;28;20025;-87
2023/06/14 05:48:25;;;;;;;8.07;4.30;;;;;;;17.25;50.04;101442.50;5061772;28;20571;-86
2023/06/14 05:50:50;;;;;;;9.83;4.70;;;;;;;17.26;49.61;101450.34;5052937;28;20037;-89
2023/06/14 05:53:16;;;;;;;9.30;4.70;;;;;;;17.32;50.39;101453.66;5051418;28;20041;-85
2023/06/14 05:55:41;;;;;;;5.43;3.63;;;;;;;17.43;49.36;101457.63;5052512;28;20033;-86
2023/06/14 05:58:06;;;;;;;10.93;5.30;;;;;;;17.53;49.72;101465.19;5052352;28;20418;-85
2023/06/14 06:00:32;;;;;;;9.37;4.80;;;;;;;17.72;49.65;101471.50;5051733;28;20480;-86
2023/06/14 06:02:57;;;;;;;8.77;4.97;;;;;;;18.67;47.36;101468.91;5052583;28;20500;-86
2023/06/14 06:05:23;;;;;;;10.40;4.80;;;;;;;19.45;45.04;101468.41;5052298;28;20071;-86
2023/06/14 06:07:49;;;;;;;11.93;5.17;;;;;;;19.85;44.58;101468.44;5051513;28;20033;-86
2023/06/14 06:10:14;;;;;;;5.90;3.72;;;;;;;20.69;45.39;101476.03;5051892;28;20025;-85
2023/06/14 06:12:47;;;;;;;8.07;4.30;;;;;;;22.45;40.28;101462.72;5051789;28;20105;-86
2023/06/14 06:15:27;;;;;;;8.20;4.57;;;;;;;23.00;37.83;101450.78;5061829;28;20037;-87
2023/06/14 06:18:01;;;;;;;6.43;3.72;;;;;;;23.21;37.82;101453.97;5072068;28;20032;-85
2023/06/14 06:20:38;;;;;;;9.90;3.88;;;;;;;22.76;39.07;101459.19;5071613;28;20025;-84
2023/06/14 06:23:07;;;;;;;8.43;4.03;;;;;;;22.16;39.44;101457.22;5074109;28;20027;-86
2023/06/14 06:25:33;;;;;;;6.22;3.90;;;;;;;21.96;38.96;101475.00;5076301;28;20029;-86
2023/06/14 06:27:58;;;;;;;5.93;3.57;;;;;;;21.85;40.36;101490.56;5076598;28;20027;-85
2023/06/14 06:30:25;;;;;;;7.33;4.10;;;;;;;21.69;39.15;101494.03;5076909;28;20039;-86
2023/06/14 06:32:50;;;;;;;8.27;4.32;;;;;;;21.26;40.32;101478.56;5077437;28;20020;-86
2023/06/14 06:35:16;;;;;;;6.63;3.70;;;;;;;21.34;41.05;101488.72;5075370;28;20028;-84
2023/06/14 06:37:51;;;;;;;7.03;4.07;;;;;;;21.55;40.05;101502.63;5079677;28;20034;-86
2023/06/14 06:40:17;;;;;;;7.50;4.00;;;;;;;21.25;40.04;101483.91;5079499;28;20040;-86
2023/06/14 06:43:02;;;;;;;6.57;3.90;;;;;;;21.41;40.21;101505.13;5072641;28;20295;-86
2023/06/14 06:46:02;;;;;;;8.05;4.25;;;;;;;21.41;40.84;101499.84;5059860;28;20103;-86
2023/06/14 06:48:38;;;;;;;9.65;4.28;;;;;;;21.44;39.73;101507.59;5057615;28;20377;-85
2023/06/14 06:51:06;;;;;;;8.77;4.10;;;;;;;21.21;40.57;101511.38;5055987;28;20033;-88
2023/06/14 06:53:31;;;;;;;8.00;4.07;;;;;;;20.98;40.78;101501.06;5056218;28;20048;-88
2023/06/14 06:55:56;;;;;;;7.37;4.30;;;;;;;20.71;41.32;101512.88;5054743;28;20406;-87
2023/06/14 06:58:22;;;;;;;7.47;3.70;;;;;;;20.73;41.65;101517.16;5055559;28;20021;-85
2023/06/14 07:00:47;;;;;;;7.13;3.87;;;;;;;20.90;41.92;101526.09;5056303;28;20100;-87
2023/06/14 07:03:12;;;;;;;11.43;4.63;;;;;;;20.79;41.45;101518.66;5054600;28;20027;-86
2023/06/14 07:05:38;;;;;;;9.60;4.07;;;;;;;20.94;41.41;101533.78;5055724;28;20065;-87
2023/06/14 07:08:03;;;;;;;6.03;3.77;;;;;;;21.00;41.68;101524.72;5055397;28;20036;-87
2023/06/14 07:10:29;;;;;;;10.93;4.20;;;;;;;21.05;40.95;101521.84;5054768;28;20051;-86
2023/06/14 07:12:54;;;;;;;7.27;3.97;;;;;;;21.22;41.06;101534.22;5062129;28;20070;-86
2023/06/14 07:15:26;;;;;;;9.33;4.33;;;;;;;21.13;40.93;101530.22;5075219;28;20119;-90
2023/06/14 07:18:03;;;;;;;6.85;3.67;;;;;;;21.34;41.02;101527.47;5075141;28;20021;-88
2023/06/14 07:20:29;;;;;;;8.05;3.70;;;;;;;21.65;41.45;101520.69;5075338;28;20028;-91
2023/06/14 07:23:00;;;;;;;8.48;3.80;;;;;;;21.81;40.59;101513.66;5075267;28;20016;-88
2023/06/14 07:25:26;;;;;;;5.07;3.40;;;;;;;22.09;41.10;101530.72;5075292;28;20032;-89
2023/06/14 07:27:57;;;;;;;5.95;3.47;;;;;;;22.35;40.49;101539.00;5070308;28;20079;-90
2023/06/14 07:30:25;;;;;;;8.05;4.05;;;;;;;22.26;39.51;101526.28;5055192;28;20388;-90
2023/06/14 07:33:05;;;;;;;7.10;3.80;;;;;;;22.09;38.72;101540.41;5054941;28;20032;-89
2023/06/14 07:35:31;;;;;;;7.32;3.60;;;;;;;22.07;39.49;101545.78;5055620;28;20059;-87
2023/06/14 07:37:56;;;;;;;9.90;3.90;;;;;;;22.01;39.73;101554.91;5046365;28;20029;-89
2023/06/14 07:40:24;;;;;;;7.03;3.57;;;;;;;22.12;40.30;101550.84;5054138;28;20025;-89
2023/06/14 07:43:02;;;;;;;8.15;3.60;;;;;;;22.24;40.21;101542.25;5058880;28;20024;-88
2023/06/14 07:45:27;;;;;;;5.55;3.40;;;;;;;22.45;39.02;101548.22;5072171;28;20029;-90
2023/06/14 07:48:01;;;;;;;5.97;3.37;;;;;;;22.76;38.38;101565.03;5075246;28;20464;-91
2023/06/14 07:50:32;;;;;;;5.78;3.17;;;;;;;22.63;37.04;101550.78;5075223;28;20021;-89
2023/06/14 07:52:57;;;;;;;6.65;3.70;;;;;;;22.57;37.40;101554.59;5074442;28;20116;-89
2023/06/14 07:55:25;;;;;;;5.37;3.30;;;;;;;22.45;37.27;101552.63;5073810;28;20072;-92
2023/06/14 07:57:53;;;;;;;7.15;3.83;;;;;;;22.47;38.03;101569.28;5074137;28;20370;-90
2023/06/14 08:00:27;;;;;;;7.72;3.38;;;;;;;22.45;37.74;101568.50;5073897;28;20028;-92
2023/06/14 08:02:58;;;;;;;7.55;3.60;;;;;;;22.39;37.83;101561.72;5127860;22;20019;-89
2023/06/14 08:05:27;;;;;;;7.28;3.45;;;;;;;22.58;38.04;101572.19;5054664;28;20388;-89
2023/06/14 08:07:53;;;;;;;5.63;3.28;;;;;;;22.68;38.49;101560.16;5053864;28;20392;-87
2023/06/14 08:10:18;;;;;;;5.37;2.90;;;;;;;22.89;38.28;101557.25;5054276;28;20028;-90
2023/06/14 08:12:44;;;;;;;6.23;3.30;;;;;;;23.05;36.79;101564.34;5054972;28;20028;-91
2023/06/14 08:15:09;;;;;;;3.83;3.13;;;;;;;23.07;37.74;101570.41;5054031;28;20353;-89
2023/06/14 08:17:36;;;;;;;6.88;3.45;;;;;;;22.99;37.68;101571.66;5071865;28;20105;-88
2023/06/14 08:20:02;;;;;;;8.15;3.47;;;;;;;22.74;35.72;101574.84;5073935;28;20480;-86
2023/06/14 08:22:31;;;;;;;6.65;3.05;;;;;;;22.63;35.42;101574.59;5074359;28;20403;-88
2023/06/14 08:24:57;;;;;;;6.70;3.20;;;;;;;22.66;35.77;101569.97;5074233;28;20385;-89
2023/06/14 08:27:22;;;;;;;5.70;3.07;;;;;;;22.80;35.68;101565.72;5073014;28;20037;-89
2023/06/14 08:29:48;;;;;;;5.07;2.97;;;;;;;22.84;35.48;101564.63;5074295;28;20020;-87
2023/06/14 08:32:13;;;;;;;5.70;3.30;;;;;;;22.79;35.74;101570.16;5073872;28;20279;-85
2023/06/14 08:34:47;;;;;;;5.60;3.17;;;;;;;22.79;35.96;101553.41;5072456;28;20450;-87
2023/06/14 08:37:12;;;;;;;3.95;2.70;;;;;;;23.18;36.59;101569.78;5072296;28;20201;-85
2023/06/14 08:39:37;;;;;;;4.50;2.70;;;;;;;23.57;36.94;101569.28;5073920;28;20024;-85
2023/06/14 08:42:03;;;;;;;4.37;2.47;;;;;;;23.83;36.27;101566.03;5070959;28;20020;-84
2023/06/14 08:44:30;;;;;;;6.13;2.92;;;;;;;23.90;34.88;101562.91;5072981;28;20078;-85
2023/06/14 08:46:59;;;;;;;4.38;2.83;;;;;;;24.03;35.97;101573.69;5073667;28;20031;-86
2023/06/14 08:49:24;;;;;;;4.38;2.75;;;;;;;24.24;34.88;101559.16;5072789;28;20028;-85
2023/06/14 08:51:57;;;;;;;4.00;2.73;;;;;;;24.42;34.88;101570.44;5071705;28;20438;-86
2023/06/14 08:54:24;;;;;;;5.65;2.70;;;;;;;24.44;32.70;101572.03;5073035;28;20020;-86
2023/06/14 08:56:51;;;;;;;5.72;2.80;;;;;;;24.25;32.85;101564.41;5072889;28;20111;-85
2023/06/14 08:59:18;;;;;;;4.00;2.50;;;;;;;24.23;32.99;101558.34;5073184;28;20460;-86
2023/06/14 09:01:45;;;;;;;3.90;2.70;;;;;;;24.36;34.12;101553.97;5073344;28;20028;-85
2023/06/14 09:04:10;;;;;;;3.25;2.58;;;;;;;24.46;34.50;101570.16;5069355;28;20051;-85
2023/06/14 09:06:36;;;;;;;5.65;2.50;;;;;;;24.55;32.30;101563.41;5073286;28;20468;-85
2023/06/14 09:09:04;;;;;;;2.50;2.28;;;;;;;24.69;32.42;101569.69;5073390;28;20409;-85
2023/06/14 09:11:30;;;;;;;2.53;2.25;;;;;;;24.90;30.20;101563.00;5072267;28;20029;-84
2023/06/14 09:13:56;;;;;;;3.42;2.20;;;;;;;25.06;31.80;101570.81;5073103;28;20032;-88
2023/06/14 09:16:21;;;;;;;4.33;2.30;;;;;;;24.61;29.44;101572.78;5071821;28;20029;-86
2023/06/14 09:18:47;;;;;;;3.63;2.40;;;;;;;24.44;30.79;101572.03;5073076;28;20127;-88
2023/06/14 09:21:14;;;;;;;3.17;2.13;;;;;;;24.60;31.08;101566.63;5073043;28;20052;-88
2023/06/14 09:23:44;;;;;;;2.90;2.10;;;;;;;24.72;29.59;101570.34;5072877;28;20036;-93
2023/06/14 09:26:14;;;;;;;3.97;2.30;;;;;;;24.86;28.88;101558.00;5073048;28;20021;-87
2023/06/14 09:28:47;;;;;;;2.63;1.80;;;;;;;24.74;27.67;101573.75;5072540;28;20517;-92
2023/06/14 09:31:25;;;;;;;2.95;1.98;;;;;;;24.53;27.73;101573.28;5071697;28;20035;-84
2023/06/14 09:33:50;;;;;;;2.58;1.88;;;;;;;24.45;28.09;101583.53;5072560;28;20025;-85
2023/06/14 09:36:22;;;;;;;1.83;1.70;;;;;;;24.45;27.86;101573.75;5072590;28;20115;-87
2023/06/14 09:38:59;;;;;;;1.80;1.70;;;;;;;24.60;28.29;101581.69;5072121;28;20401;-84
2023/06/14 09:41:36;;;;;;;2.38;2.00;;;;;;;24.91;27.93;101575.31;5072917;28;20375;-88
2023/06/14 09:44:03;;;;;;;2.22;1.90;;;;;;;24.74;28.28;101580.84;5072753;28;20044;-85
2023/06/14 09:46:30;;;;;;;4.25;1.90;;;;;;;24.41;27.38;101587.31;5071270;28;20030;-87
2023/06/14 09:48:56;;;;;;;3.22;2.00;;;;;;;24.30;28.18;101580.88;5072834;28;20472;-89
2023/06/14 09:51:23;;;;;;;2.30;2.05;;;;;;;24.28;28.29;101582.75;5072456;28;20024;-83
2023/06/14 09:53:49;;;;;;;2.42;1.90;;;;;;;24.31;27.56;101600.31;5071958;28;20063;-84
2023/06/14 09:56:27;;;;;;;2.92;2.00;;;;;;;24.35;28.39;101584.09;5071591;28;20025;-84
2023/06/14 09:58:56;;;;;;;3.50;1.92;;;;;;;24.32;27.88;101583.44;5051544;28;20105;-83
2023/06/14 10:01:23;;;;;;;3.17;2.00;;;;;;;24.33;27.57;101588.66;5052581;28;20122;-83
2023/06/14 10:03:50;;;;;;;2.40;1.95;;;;;;;24.33;28.62;101587.78;5061669;22;20045;-83
2023/06/14 10:06:16;;;;;;;3.10;2.10;;;;;;;24.41;29.58;101574.03;5031423;28;20080;-84
2023/06/14 10:08:42;;;;;;;2.05;1.88;;;;;;;24.82;29.34;101570.63;5032699;28;20033;-83
2023/06/14 10:11:07;;;;;;;3.53;2.15;;;;;;;24.74;28.44;101564.91;5032441;28;20017;-83
2023/06/14 10:13:36;;;;;;;5.05;2.20;;;;;;;24.92;29.82;101561.09;5031411;28;20037;-85
2023/06/14 10:16:11;;;;;;;2.53;2.10;;;;;;;25.19;28.06;101567.34;5030624;28;20030;-83
2023/06/14 10:18:58;;;;;;;2.80;2.10;;;;;;;25.16;29.21;101568.41;5031639;28;20487;-82
2023/06/14 10:21:37;;;;;;;3.55;2.00;;;;;;;25.38;27.85;101565.16;5031126;28;20033;-83
2023/06/14 10:24:08;;;;;;;2.72;2.10;;;;;;;25.31;28.66;101565.69;5032254;28;20030;-83
2023/06/14 10:26:33;;;;;;;2.70;2.00;;;;;;;25.32;27.99;101562.06;5033200;28;20041;-83
2023/06/14 10:29:11;;;;;;;2.85;2.10;;;;;;;25.20;27.59;101574.38;5031409;28;20465;-82
2023/06/14 10:32:00;;;;;;;4.53;2.25;;;;;;;25.13;28.22;101571.25;5032336;28;20024;-84
2023/06/14 10:34:30;;;;;;;2.47;2.10;;;;;;;25.02;27.54;101579.09;5022998;28;20065;-83
2023/06/14 10:37:06;;;;;;;4.18;2.20;;;;;;;24.93;27.90;101575.22;5032463;28;20075;-83
2023/06/14 10:39:38;;;;;;;2.53;2.20;;;;;;;24.62;28.14;101579.81;5032190;28;20392;-83
2023/06/14 10:42:05;;;;;;;5.07;2.20;;;;;;;24.73;27.93;101557.91;5011588;28;20124;-83
2023/06/14 10:44:30;;;;;;;3.88;2.30;;;;;;;24.94;28.03;101569.78;5012367;28;20049;-83
2023/06/14 10:46:59;;;;;;;2.43;2.10;;;;;;;25.26;29.26;101565.97;5011767;28;20026;-84
2023/06/14 10:49:41;;;;;;;2.85;2.20;;;;;;;25.46;28.77;101569.13;5010308;28;20030;-83
2023/06/14 10:52:20;;;;;;;2.45;2.20;;;;;;;25.41;29.25;101566.78;5028043;28;20021;-83
2023/06/14 10:55:12;;;;;;;2.97;2.20;;;;;;;25.44;27.85;101593.16;5031117;28;20103;-82
2023/06/14 10:57:46;;;;;;;3.05;2.38;;;;;;;25.53;28.28;101560.66;5012101;28;20543;-82
2023/06/14 11:00:16;;;;;;;2.92;2.00;;;;;;;25.80;28.61;101561.53;5017512;28;20037;-83
2023/06/14 11:02:51;;;;;;;5.75;2.30;;;;;;;25.99;27.40;101566.44;5049707;28;20033;-84
2023/06/14 11:05:24;;;;;;;3.38;2.20;;;;;;;25.88;27.01;101573.34;5051637;28;20048;-83
2023/06/14 11:08:08;;;;;;;4.25;2.15;;;;;;;25.82;27.52;101578.22;5051748;28;20029;-83
2023/06/14 11:10:41;;;;;;;5.28;2.50;;;;;;;25.89;28.46;101576.88;5051273;28;20411;-83
2023/06/14 11:13:08;;;;;;;2.65;2.15;;;;;;;26.07;27.49;101574.72;5051450;28;20021;-84
2023/06/14 11:15:38;;;;;;;2.33;2.13;;;;;;;26.28;28.05;101579.53;5053480;28;20033;-83
2023/06/14 11:18:07;;;;;;;2.38;2.03;;;;;;;26.52;27.84;101568.97;5054533;28;20025;-84
2023/06/14 11:20:34;;;;;;;3.95;2.10;;;;;;;26.28;28.13;101560.94;5055515;28;20056;-84
2023/06/14 11:23:00;;;;;;;3.17;2.20;;;;;;;25.88;27.79;101567.19;5054777;28;20021;-84
2023/06/14 11:25:27;;;;;;;2.78;2.30;;;;;;;25.55;28.27;101560.56;5054911;28;20027;-84
2023/06/14 11:27:53;;;;;;;2.45;2.15;;;;;;;25.95;28.51;101544.53;5055298;28;20431;-84
2023/06/14 11:30:18;;;;;;;3.38;2.20;;;;;;;26.04;28.21;101559.00;5036742;28;20095;-84
2023/06/14 11:32:48;;;;;;;9.82;2.90;;;;;;;25.14;27.43;101567.66;5035065;28;20014;-83